createdAt,value
2023-02-22T00:01:28.258Z,25.85
2023-02-22T00:03:54.713Z,26.48
2023-02-22T00:06:24.939Z,25.60
2023-02-22T00:08:53.296Z,26.05
2023-02-22T00:11:20.563Z,25.85
2023-02-22T00:13:47.647Z,26.77
2023-02-22T00:16:16.646Z,23.38
2023-02-22T00:18:44.287Z,24.50
2023-02-22T00:21:12.324Z,24.90
2023-02-22T00:23:46.432Z,23.35
2023-02-22T00:26:18.171Z,23.27
2023-02-22T00:28:53.984Z,25.98
2023-02-22T00:31:21.327Z,25.38
2023-02-22T00:33:49.608Z,23.02
2023-02-22T00:36:17.102Z,24.42
2023-02-22T00:38:43.577Z,23.73
2023-02-22T00:41:11.773Z,22.75
2023-02-22T00:43:38.184Z,21.30
2023-02-22T00:46:04.905Z,24.77
2023-02-22T00:48:31.485Z,22.58
2023-02-22T00:50:57.934Z,25.90
2023-02-22T00:53:25.844Z,24.30
2023-02-22T00:55:53.585Z,23.15
2023-02-22T00:58:20.489Z,24.05
2023-02-22T01:00:47.530Z,21.92
2023-02-22T01:03:16.116Z,24.23
2023-02-22T01:05:42.905Z,18.23
2023-02-22T01:08:11.760Z,21.05
2023-02-22T01:10:39.146Z,21.23
2023-02-22T01:13:09.027Z,23.45
2023-02-22T01:15:38.849Z,20.88
2023-02-22T01:18:06.253Z,22.58
2023-02-22T01:20:33.271Z,20.50
2023-02-22T01:23:03.628Z,20.90
2023-02-22T01:25:31.649Z,21.48
2023-02-22T01:27:59.510Z,22.00
2023-02-22T01:30:30.494Z,20.83
2023-02-22T01:32:57.149Z,26.42
2023-02-22T01:35:32.736Z,22.10
2023-02-22T01:37:59.500Z,18.80
2023-02-22T01:40:39.042Z,23.45
2023-02-22T01:43:19.984Z,23.10
2023-02-22T01:45:53.097Z,21.50
2023-02-22T01:48:39.773Z,25.00
2023-02-22T01:51:17.232Z,22.90
2023-02-22T01:53:47.835Z,20.50
2023-02-22T01:56:16.356Z,22.95
2023-02-22T01:58:47.042Z,20.05
2023-02-22T02:01:15.102Z,26.45
2023-02-22T02:03:42.098Z,21.38
2023-02-22T02:06:13.374Z,22.80
2023-02-22T02:08:49.841Z,21.73
2023-02-22T02:11:19.260Z,23.05
2023-02-22T02:13:47.072Z,24.15
2023-02-22T02:16:14.611Z,23.35
2023-02-22T02:18:41.169Z,19.77
2023-02-22T02:21:50.896Z,21.83
2023-02-22T02:24:57.429Z,22.92
2023-02-22T02:27:32.232Z,21.33
2023-02-22T02:30:07.664Z,25.40
2023-02-22T02:32:58.874Z,24.35
2023-02-22T02:36:02.929Z,27.33
2023-02-22T02:38:54.434Z,22.70
2023-02-22T02:41:34.149Z,23.27
2023-02-22T02:44:05.962Z,25.63
2023-02-22T02:46:43.253Z,25.42
2023-02-22T02:49:15.162Z,27.13
2023-02-22T02:51:47.233Z,28.05
2023-02-22T02:54:15.370Z,25.38
2023-02-22T02:56:42.891Z,26.02
2023-02-22T02:59:31.226Z,22.30
2023-02-22T03:02:15.099Z,26.08
2023-02-22T03:04:59.954Z,27.33
2023-02-22T03:07:49.223Z,26.02
2023-02-22T03:10:24.474Z,25.60
2023-02-22T03:13:12.624Z,27.55
2023-02-22T03:16:06.791Z,27.02
2023-02-22T03:18:55.389Z,30.05
2023-02-22T03:21:34.648Z,27.08
2023-02-22T03:24:07.953Z,28.85
2023-02-22T03:26:47.490Z,29.35
2023-02-22T03:29:17.845Z,27.88
2023-02-22T03:32:01.515Z,27.63
2023-02-22T03:34:41.594Z,30.80
2023-02-22T03:37:18.208Z,28.52
2023-02-22T03:39:47.205Z,28.13
2023-02-22T03:42:35.561Z,29.50
2023-02-22T03:45:05.312Z,31.52
2023-02-22T03:47:41.919Z,32.10
2023-02-22T03:50:17.310Z,32.92
2023-02-22T03:52:45.404Z,33.22
2023-02-22T03:55:17.757Z,29.20
2023-02-22T03:57:55.023Z,29.73
2023-02-22T04:00:23.683Z,32.88
2023-02-22T04:02:50.506Z,33.25
2023-02-22T04:05:19.841Z,33.45
2023-02-22T04:07:47.359Z,30.63
2023-02-22T04:10:16.726Z,34.45
2023-02-22T04:12:43.814Z,32.55
2023-02-22T04:15:15.466Z,35.50
2023-02-22T04:17:42.578Z,32.70
2023-02-22T04:20:13.621Z,32.47
2023-02-22T04:22:53.394Z,32.35
2023-02-22T04:25:21.217Z,34.85
2023-02-22T04:27:47.777Z,34.08
2023-02-22T04:30:18.159Z,31.67
2023-02-22T04:35:12.477Z,36.30
2023-02-22T04:37:38.959Z,33.45
2023-02-22T04:40:07.809Z,33.35
2023-02-22T04:42:36.185Z,31.50
2023-02-22T04:45:08.590Z,33.08
2023-02-22T04:47:36.938Z,35.67
2023-02-22T04:50:05.838Z,34.92
2023-02-22T04:52:32.449Z,28.65
2023-02-22T04:54:59.792Z,31.35
2023-02-22T04:57:27.135Z,32.17
2023-02-22T04:59:54.153Z,34.47
2023-02-22T05:02:23.149Z,34.67
2023-02-22T05:04:50.305Z,32.13
2023-02-22T05:07:17.617Z,31.85
2023-02-22T05:09:44.113Z,32.80
2023-02-22T05:12:10.653Z,34.05
2023-02-22T05:14:37.241Z,38.70
2023-02-22T05:17:04.457Z,35.38
2023-02-22T05:19:31.057Z,35.15
2023-02-22T05:21:57.709Z,34.25
2023-02-22T05:24:24.530Z,38.13
2023-02-22T05:26:53.746Z,36.97
2023-02-22T05:29:20.967Z,35.28
2023-02-22T05:31:47.579Z,37.10
2023-02-22T05:34:16.073Z,37.50
2023-02-22T05:36:42.643Z,41.75
2023-02-22T05:39:09.164Z,40.10
2023-02-22T05:41:35.881Z,40.15
2023-02-22T05:44:03.037Z,46.25
2023-02-22T05:46:29.562Z,33.78
2023-02-22T05:48:56.061Z,38.20
2023-02-22T05:51:22.969Z,40.42
2023-02-22T05:53:52.045Z,41.38
2023-02-22T05:58:48.886Z,41.10
2023-02-22T06:01:15.972Z,36.70
2023-02-22T06:03:42.701Z,42.10
2023-02-22T06:06:10.369Z,42.75
2023-02-22T06:08:37.441Z,43.40
2023-02-22T06:11:03.995Z,45.78
2023-02-22T06:13:30.710Z,52.22
2023-02-22T06:15:57.191Z,46.55
2023-02-22T06:18:26.545Z,41.25
2023-02-22T06:20:53.240Z,46.03
2023-02-22T06:23:19.791Z,47.60
2023-02-22T06:25:46.252Z,48.83
2023-02-22T06:28:12.793Z,46.72
2023-02-22T06:30:40.879Z,48.28
2023-02-22T06:33:07.349Z,46.25
2023-02-22T06:35:33.983Z,44.53
2023-02-22T06:38:00.607Z,43.75
2023-02-22T06:40:30.374Z,48.10
2023-02-22T06:42:58.510Z,47.45
2023-02-22T06:45:25.644Z,38.25
2023-02-22T06:47:52.178Z,49.95
2023-02-22T06:50:20.991Z,41.92
2023-02-22T06:52:47.993Z,44.05
2023-02-22T06:55:18.104Z,49.17
2023-02-22T06:57:44.531Z,42.67
2023-02-22T07:00:11.717Z,46.30
2023-02-22T07:02:38.441Z,45.83
2023-02-22T07:05:05.091Z,46.88
2023-02-22T07:07:31.633Z,47.60
2023-02-22T07:09:58.113Z,47.30
2023-02-22T07:12:24.514Z,44.05
2023-02-22T07:14:55.559Z,48.13
2023-02-22T07:17:22.050Z,49.67
2023-02-22T07:19:48.554Z,53.10
2023-02-22T07:22:15.050Z,48.05
2023-02-22T07:24:41.475Z,56.90
2023-02-22T07:27:07.988Z,44.35
2023-02-22T07:29:36.202Z,46.95
2023-02-22T07:32:03.108Z,44.75
2023-02-22T07:34:30.703Z,45.28
2023-02-22T07:36:57.158Z,42.50
2023-02-22T07:39:23.577Z,49.38
2023-02-22T07:41:50.086Z,44.55
2023-02-22T07:44:23.391Z,52.17
2023-02-22T07:46:50.285Z,42.67
2023-02-22T07:49:18.431Z,45.03
2023-02-22T07:51:44.967Z,43.75
2023-02-22T07:54:11.494Z,44.78
2023-02-22T07:56:43.788Z,42.55
2023-02-22T07:59:10.243Z,41.90
2023-02-22T08:01:37.567Z,41.72
2023-02-22T08:04:04.418Z,40.35
2023-02-22T08:06:31.999Z,41.95
2023-02-22T08:09:07.461Z,40.17
2023-02-22T08:11:34.010Z,37.00
2023-02-22T08:14:00.442Z,37.60
2023-02-22T08:16:26.930Z,36.92
2023-02-22T08:18:53.446Z,35.95
2023-02-22T08:21:20.040Z,43.05
2023-02-22T08:23:51.425Z,40.40
2023-02-22T08:26:18.524Z,42.88
2023-02-22T08:28:45.370Z,42.13
2023-02-22T08:31:14.890Z,35.30
2023-02-22T08:33:42.442Z,35.05
2023-02-22T08:36:09.264Z,39.33
2023-02-22T08:38:35.732Z,36.15
2023-02-22T08:41:02.204Z,35.40
2023-02-22T08:43:28.688Z,34.13
2023-02-22T08:45:57.413Z,38.45
2023-02-22T08:48:24.580Z,35.88
2023-02-22T08:50:51.081Z,39.63
2023-02-22T08:53:18.362Z,34.97
2023-02-22T08:55:45.364Z,33.85
2023-02-22T08:58:12.483Z,37.38
2023-02-22T09:00:40.631Z,31.63
2023-02-22T09:03:10.369Z,30.75
2023-02-22T09:05:37.136Z,33.15
2023-02-22T09:08:03.983Z,30.17
2023-02-22T09:10:33.182Z,35.45
2023-02-22T09:13:00.954Z,34.45
2023-02-22T09:15:28.432Z,32.90
2023-02-22T09:17:55.702Z,32.38
2023-02-22T09:20:24.048Z,33.42
2023-02-22T09:22:50.780Z,31.50
2023-02-22T09:25:19.864Z,31.50
2023-02-22T09:30:26.223Z,30.92
2023-02-22T09:32:56.211Z,34.60
2023-02-22T09:35:29.751Z,31.55
2023-02-22T09:37:57.798Z,36.03
2023-02-22T09:40:29.941Z,34.78
2023-02-22T09:43:17.591Z,29.58
2023-02-22T09:45:44.968Z,26.88
2023-02-22T09:48:21.739Z,29.50
2023-02-22T09:50:53.322Z,25.15
2023-02-22T09:53:31.467Z,25.02
2023-02-22T09:56:06.852Z,21.48
2023-02-22T09:58:41.476Z,27.05
2023-02-22T10:01:23.158Z,26.63
2023-02-22T10:03:52.208Z,33.15
2023-02-22T10:06:22.946Z,24.63
2023-02-22T10:08:53.715Z,26.35
2023-02-22T10:11:42.672Z,23.98
2023-02-22T10:14:34.600Z,25.33
2023-02-22T10:17:24.419Z,24.50
2023-02-22T10:20:25.296Z,26.52
2023-02-22T10:22:54.537Z,26.63
2023-02-22T10:25:25.726Z,26.58
2023-02-22T10:27:58.668Z,28.15
2023-02-22T10:30:33.627Z,27.85
2023-02-22T10:33:00.676Z,29.77
2023-02-22T10:35:32.831Z,26.98
2023-02-22T10:38:11.005Z,25.77
2023-02-22T10:40:39.648Z,26.05
2023-02-22T10:43:11.155Z,30.23
2023-02-22T10:45:37.843Z,28.15
2023-02-22T10:48:09.322Z,26.83
2023-02-22T10:50:40.699Z,28.48
2023-02-22T10:53:08.815Z,29.98
2023-02-22T10:55:35.755Z,29.83
2023-02-22T10:58:06.791Z,30.02
2023-02-22T11:00:37.320Z,26.77
2023-02-22T11:03:14.767Z,32.65
2023-02-22T11:05:41.837Z,28.77
2023-02-22T11:08:20.453Z,25.88
2023-02-22T11:10:51.609Z,26.42
2023-02-22T11:13:26.004Z,27.20
2023-02-22T11:16:00.116Z,26.27
2023-02-22T11:18:31.868Z,27.05
2023-02-22T11:21:02.967Z,29.77
2023-02-22T11:23:30.070Z,29.67
2023-02-22T11:26:22.800Z,28.63
2023-02-22T11:28:56.186Z,30.27
2023-02-22T11:31:28.337Z,30.13
2023-02-22T11:36:37.756Z,27.48
2023-02-22T11:39:06.184Z,28.35
2023-02-22T11:41:34.895Z,29.38
2023-02-22T11:44:23.647Z,29.05
2023-02-22T11:46:51.554Z,26.05
2023-02-22T11:49:18.474Z,27.02
2023-02-22T11:52:03.945Z,31.38
2023-02-22T11:54:58.742Z,27.95
2023-02-22T11:57:46.437Z,30.88
2023-02-22T12:00:33.461Z,31.30
2023-02-22T12:03:38.809Z,37.05
2023-02-22T12:06:19.452Z,30.85
2023-02-22T12:08:59.965Z,27.60
2023-02-22T12:11:39.026Z,30.45
2023-02-22T12:14:26.029Z,30.23
2023-02-22T12:17:09.401Z,32.25
2023-02-22T12:20:21.849Z,29.25
2023-02-22T12:23:14.533Z,29.65
2023-02-22T12:26:01.296Z,29.38
2023-02-22T12:28:39.539Z,31.73
2023-02-22T12:31:22.637Z,30.15
2023-02-22T12:34:09.489Z,29.52
2023-02-22T12:36:41.891Z,31.52
2023-02-22T12:39:29.531Z,30.13
2023-02-22T12:41:57.161Z,34.45
2023-02-22T12:44:33.350Z,28.70
2023-02-22T12:47:02.305Z,29.95
2023-02-22T12:52:32.056Z,27.10
2023-02-22T12:55:04.210Z,29.10
2023-02-22T12:57:42.727Z,29.50
2023-02-22T13:00:30.622Z,24.92
2023-02-22T13:03:27.771Z,28.52
2023-02-22T13:06:32.587Z,28.55
2023-02-22T13:09:07.340Z,24.52
2023-02-22T13:14:21.843Z,28.50
2023-02-22T13:17:08.272Z,33.20
2023-02-22T13:19:58.382Z,27.83
2023-02-22T13:22:44.995Z,26.25
2023-02-22T13:28:13.368Z,22.70
2023-02-22T13:30:47.382Z,26.88
2023-02-22T13:33:52.377Z,27.63
2023-02-22T13:36:24.412Z,31.15
2023-02-22T13:39:02.710Z,29.20
2023-02-22T13:41:38.281Z,24.63
2023-02-22T13:44:35.255Z,28.00
2023-02-22T13:47:27.233Z,27.38
2023-02-22T13:50:27.793Z,30.40
2023-02-22T13:52:57.856Z,30.95
2023-02-22T13:55:29.931Z,28.60
2023-02-22T13:58:03.211Z,24.77
2023-02-22T14:00:41.704Z,29.40
2023-02-22T14:03:14.038Z,25.92
2023-02-22T14:05:44.779Z,28.83
2023-02-22T14:08:14.422Z,27.05
2023-02-22T14:10:43.678Z,25.05
2023-02-22T14:13:10.634Z,27.35
2023-02-22T14:16:02.884Z,23.83
2023-02-22T14:18:34.878Z,23.40
2023-02-22T14:21:21.099Z,24.52
2023-02-22T14:23:49.324Z,21.50
2023-02-22T14:26:29.673Z,22.90
2023-02-22T14:29:03.735Z,24.73
2023-02-22T14:31:37.555Z,22.67
2023-02-22T14:34:13.503Z,25.38
2023-02-22T14:36:57.008Z,23.75
2023-02-22T14:39:31.913Z,24.65
2023-02-22T14:42:06.897Z,26.90
2023-02-22T14:44:39.621Z,25.05
2023-02-22T14:47:14.005Z,21.38
2023-02-22T14:49:45.109Z,22.30
2023-02-22T14:52:19.716Z,23.52
2023-02-22T14:54:59.257Z,20.08
2023-02-22T14:57:38.767Z,22.45
2023-02-22T15:00:19.749Z,22.00
2023-02-22T15:02:48.569Z,19.35
2023-02-22T15:05:19.500Z,20.77
2023-02-22T15:08:02.103Z,21.80
2023-02-22T15:10:31.673Z,20.67
2023-02-22T15:13:08.883Z,25.75
2023-02-22T15:15:38.586Z,19.70
2023-02-22T15:18:14.739Z,21.65
2023-02-22T15:20:41.475Z,22.92
2023-02-22T15:23:07.961Z,21.50
2023-02-22T15:25:37.527Z,22.45
2023-02-22T15:28:05.251Z,20.85
2023-02-22T15:30:34.218Z,20.83
2023-02-22T15:33:17.153Z,19.90
2023-02-22T15:35:44.661Z,20.95
2023-02-22T15:38:11.009Z,20.85
2023-02-22T15:40:42.897Z,25.13
2023-02-22T15:43:24.817Z,20.48
2023-02-22T15:45:52.095Z,20.60
2023-02-22T15:48:18.744Z,21.40
2023-02-22T15:51:07.700Z,18.63
2023-02-22T15:53:42.028Z,21.17
2023-02-22T15:56:31.044Z,25.33
2023-02-22T15:59:06.732Z,19.45
2023-02-22T16:01:40.654Z,21.63
2023-02-22T16:04:17.998Z,20.85
2023-02-22T16:06:45.126Z,21.25
2023-02-22T16:09:25.849Z,21.08
2023-02-22T16:14:37.611Z,21.67
2023-02-22T16:17:29.555Z,20.25
2023-02-22T16:20:00.519Z,23.70
2023-02-22T16:22:34.606Z,21.67
2023-02-22T16:25:16.331Z,21.73
2023-02-22T16:27:48.648Z,22.98
2023-02-22T16:30:24.445Z,22.42
2023-02-22T16:32:54.714Z,22.60
2023-02-22T16:35:21.827Z,21.15
2023-02-22T16:37:56.070Z,22.42
2023-02-22T16:40:26.217Z,27.15
2023-02-22T16:42:52.919Z,21.48
2023-02-22T16:45:20.706Z,25.02
2023-02-22T16:47:48.057Z,23.75
2023-02-22T16:50:17.364Z,24.23
2023-02-22T16:52:48.793Z,22.63
2023-02-22T16:55:17.803Z,22.88
2023-02-22T16:57:44.734Z,20.38
2023-02-22T17:00:16.914Z,20.25
2023-02-22T17:02:45.137Z,24.70
2023-02-22T17:05:16.056Z,23.80
2023-02-22T17:07:42.990Z,22.80
2023-02-22T17:10:18.372Z,25.35
2023-02-22T17:12:47.411Z,24.30
2023-02-22T17:17:45.520Z,23.27
2023-02-22T17:20:12.227Z,23.20
2023-02-22T17:22:38.769Z,26.10
2023-02-22T17:25:25.478Z,26.65
2023-02-22T17:27:52.051Z,25.95
2023-02-22T17:30:23.012Z,29.27
2023-02-22T17:32:51.444Z,28.65
2023-02-22T17:35:20.623Z,27.27
2023-02-22T17:37:47.488Z,27.45
2023-02-22T17:40:14.603Z,29.58
2023-02-22T17:42:45.238Z,30.30
2023-02-22T17:45:14.003Z,28.42
2023-02-22T17:47:44.008Z,30.83
2023-02-22T17:50:11.717Z,30.30
2023-02-22T17:52:38.571Z,32.30
2023-02-22T17:55:06.338Z,34.20
2023-02-22T17:57:33.470Z,36.10
2023-02-22T18:00:01.218Z,34.65
2023-02-22T18:02:28.797Z,38.78
2023-02-22T18:04:55.342Z,37.03
2023-02-22T18:07:21.751Z,36.03
2023-02-22T18:09:48.280Z,39.75
2023-02-22T18:12:15.000Z,43.10
2023-02-22T18:14:41.628Z,41.20
2023-02-22T18:17:08.069Z,38.58
2023-02-22T18:19:34.503Z,39.45
2023-02-22T18:22:02.938Z,38.88
2023-02-22T18:24:34.487Z,41.90
2023-02-22T18:27:01.420Z,42.95
2023-02-22T18:29:28.896Z,41.75
2023-02-22T18:31:56.361Z,42.65
2023-02-22T18:34:25.765Z,44.45
2023-02-22T18:36:52.334Z,39.05
2023-02-22T18:39:18.830Z,46.90
2023-02-22T18:41:48.547Z,43.80
2023-02-22T18:44:15.987Z,45.88
2023-02-22T18:46:43.484Z,45.17
2023-02-22T18:49:13.728Z,50.05
2023-02-22T18:51:43.416Z,51.13
2023-02-22T18:54:12.306Z,45.08
2023-02-22T18:56:40.178Z,54.53
2023-02-22T18:59:12.041Z,49.47
2023-02-22T19:01:40.710Z,55.35
2023-02-22T19:04:12.568Z,52.58
2023-02-22T19:06:39.612Z,61.75
2023-02-22T19:09:09.124Z,59.75
2023-02-22T19:11:36.589Z,58.83
2023-02-22T19:14:06.543Z,58.63
2023-02-22T19:16:33.417Z,58.20
2023-02-22T19:18:59.913Z,61.67
2023-02-22T19:21:28.715Z,55.58
2023-02-22T19:24:00.185Z,72.22
2023-02-22T19:26:27.822Z,57.28
2023-02-22T19:28:56.224Z,59.92
2023-02-22T19:31:26.319Z,67.63
2023-02-22T19:33:53.035Z,63.35
2023-02-22T19:36:22.897Z,63.70
2023-02-22T19:38:49.429Z,65.47
2023-02-22T19:41:19.124Z,65.50
2023-02-22T19:43:47.568Z,61.47
2023-02-22T19:46:17.684Z,65.13
2023-02-22T19:48:45.117Z,59.90
2023-02-22T19:51:14.237Z,59.95
2023-02-22T19:56:16.648Z,65.25
2023-02-22T19:58:44.640Z,65.97
2023-02-22T20:01:31.774Z,60.70
2023-02-22T20:04:05.044Z,62.63
2023-02-22T20:06:34.797Z,63.20
2023-02-22T20:09:02.652Z,64.38
2023-02-22T20:11:29.623Z,63.65
2023-02-22T20:13:56.088Z,61.08
2023-02-22T20:16:22.968Z,60.97
2023-02-22T20:18:50.633Z,59.50
2023-02-22T20:21:36.454Z,59.95
2023-02-22T20:24:08.509Z,59.70
2023-02-22T20:26:38.086Z,61.05
2023-02-22T20:29:06.305Z,60.00
2023-02-22T20:31:33.000Z,50.42
2023-02-22T20:34:00.826Z,53.60
2023-02-22T20:36:29.294Z,59.22
2023-02-22T20:38:58.009Z,53.13
2023-02-22T20:41:30.570Z,57.78
2023-02-22T20:43:58.328Z,53.17
2023-02-22T20:46:26.502Z,57.10
2023-02-22T20:49:00.857Z,55.85
2023-02-22T20:51:28.162Z,56.95
2023-02-22T20:53:54.754Z,54.50
2023-02-22T20:56:23.990Z,56.08
2023-02-22T20:58:50.721Z,53.80
2023-02-22T21:01:22.648Z,53.55
2023-02-22T21:03:49.833Z,56.60
2023-02-22T21:06:21.158Z,53.22
2023-02-22T21:08:56.985Z,49.33
2023-02-22T21:11:25.492Z,58.10
2023-02-22T21:13:52.363Z,51.63
2023-02-22T21:16:32.892Z,51.55
2023-02-22T21:19:03.305Z,60.53
2023-02-22T21:21:30.853Z,59.58
2023-02-22T21:24:02.025Z,52.38
2023-02-22T21:26:33.941Z,55.45
2023-02-22T21:29:05.956Z,58.80
2023-02-22T21:31:33.950Z,52.92
2023-02-22T21:34:01.418Z,51.92
2023-02-22T21:36:29.114Z,55.63
2023-02-22T21:38:58.429Z,52.33
2023-02-22T21:41:27.920Z,54.45
2023-02-22T21:43:56.724Z,56.78
2023-02-22T21:46:29.188Z,53.08
2023-02-22T21:48:58.435Z,47.15
2023-02-22T21:51:31.216Z,53.75
2023-02-22T21:54:00.992Z,48.17
2023-02-22T21:56:29.706Z,52.78
2023-02-22T21:59:03.650Z,56.13
2023-02-22T22:01:33.633Z,59.20
2023-02-22T22:04:01.508Z,46.60
2023-02-22T22:06:30.085Z,51.28
2023-02-22T22:08:57.540Z,56.25
2023-02-22T22:11:25.106Z,53.90
2023-02-22T22:13:57.399Z,46.58
2023-02-22T22:16:27.250Z,45.70
2023-02-22T22:18:54.926Z,49.95
2023-02-22T22:21:23.726Z,49.42
2023-02-22T22:23:54.180Z,47.22
2023-02-22T22:26:20.860Z,46.67
2023-02-22T22:28:53.170Z,45.63
2023-02-22T22:31:21.946Z,46.40
2023-02-22T22:33:49.133Z,46.53
2023-02-22T22:36:17.148Z,48.10
2023-02-22T22:38:46.869Z,51.90
2023-02-22T22:41:15.345Z,45.58
2023-02-22T22:43:45.988Z,49.25
2023-02-22T22:46:14.919Z,48.70
2023-02-22T22:51:10.963Z,47.13
2023-02-22T22:53:43.156Z,50.55
2023-02-22T22:56:16.346Z,49.22
2023-02-22T22:58:59.129Z,49.60
2023-02-22T23:01:32.492Z,41.90
2023-02-22T23:04:02.271Z,46.28
2023-02-22T23:06:32.644Z,47.22
2023-02-22T23:09:00.570Z,46.92
2023-02-22T23:11:29.894Z,50.13
2023-02-22T23:13:56.561Z,45.33
2023-02-22T23:16:24.574Z,48.33
2023-02-22T23:18:51.379Z,47.00
2023-02-22T23:21:24.285Z,45.40
2023-02-22T23:23:55.389Z,44.63
2023-02-22T23:26:21.854Z,41.00
2023-02-22T23:28:48.997Z,46.67
2023-02-22T23:31:17.475Z,46.17
2023-02-22T23:33:48.071Z,50.00
2023-02-22T23:36:16.169Z,46.10
2023-02-22T23:38:43.557Z,43.45
2023-02-22T23:41:12.830Z,43.10
2023-02-22T23:43:40.425Z,47.10
2023-02-22T23:46:20.466Z,44.67
2023-02-22T23:48:54.545Z,39.95
2023-02-22T23:51:25.405Z,41.17
2023-02-22T23:53:55.511Z,43.80
2023-02-22T23:56:26.474Z,43.53
2023-02-22T23:58:57.463Z,43.08
